sensor_id;sensor_type;location;lat;lon;timestamp;pressure;altitude;pressure_sealevel;temperature;humidity
61761;BME280;47664;51.660;-0.100;2023-01-01T00:00:36;99612.65;;;10.36;65.48
61761;BME280;47664;51.660;-0.100;2023-01-01T00:03:08;99624.49;;;10.34;65.11
61761;BME280;47664;51.660;-0.100;2023-01-01T00:05:42;99637.06;;;10.32;66.25
61761;BME280;47664;51.660;-0.100;2023-01-01T00:08:14;99638.89;;;9.98;66.46
61761;BME280;47664;51.660;-0.100;2023-01-01T00:10:46;99633.42;;;10.56;65.50
61761;BME280;47664;51.660;-0.100;2023-01-01T00:13:19;99641.77;;;10.00;67.12
61761;BME280;47664;51.660;-0.100;2023-01-01T00:15:51;99651.45;;;9.66;67.56
61761;BME280;47664;51.660;-0.100;2023-01-01T00:18:23;99660.27;;;9.99;67.77
61761;BME280;47664;51.660;-0.100;2023-01-01T00:21:00;99667.17;;;9.69;68.21
61761;BME280;47664;51.660;-0.100;2023-01-01T00:23:32;99669.74;;;10.05;68.68
61761;BME280;47664;51.660;-0.100;2023-01-01T00:26:08;99659.53;;;10.48;67.97
61761;BME280;47664;51.660;-0.100;2023-01-01T00:28:40;99667.13;;;10.18;67.48
61761;BME280;47664;51.660;-0.100;2023-01-01T00:31:13;99666.33;;;10.15;67.79
61761;BME280;47664;51.660;-0.100;2023-01-01T00:33:48;99663.07;;;10.29;67.74
61761;BME280;47664;51.660;-0.100;2023-01-01T00:36:22;99655.49;;;10.10;67.20
61761;BME280;47664;51.660;-0.100;2023-01-01T00:38:55;99655.81;;;10.17;66.72
61761;BME280;47664;51.660;-0.100;2023-01-01T00:41:28;99659.46;;;10.28;66.65
61761;BME280;47664;51.660;-0.100;2023-01-01T00:44:00;99657.76;;;10.28;66.06
61761;BME280;47664;51.660;-0.100;2023-01-01T00:46:32;99657.60;;;10.71;65.20
61761;BME280;47664;51.660;-0.100;2023-01-01T00:49:05;99660.93;;;10.61;66.02
61761;BME280;47664;51.660;-0.100;2023-01-01T00:51:37;99667.49;;;10.42;66.58
61761;BME280;47664;51.660;-0.100;2023-01-01T00:54:09;99673.22;;;10.50;67.17
61761;BME280;47664;51.660;-0.100;2023-01-01T00:56:41;99672.85;;;10.43;67.61
61761;BME280;47664;51.660;-0.100;2023-01-01T00:59:14;99679.35;;;10.28;67.24
61761;BME280;47664;51.660;-0.100;2023-01-01T01:01:46;99673.83;;;10.27;67.23
61761;BME280;47664;51.660;-0.100;2023-01-01T01:04:18;99673.43;;;10.28;66.84
61761;BME280;47664;51.660;-0.100;2023-01-01T01:06:51;99675.56;;;9.94;65.91
61761;BME280;47664;51.660;-0.100;2023-01-01T01:09:23;99672.29;;;10.15;64.75
61761;BME280;47664;51.660;-0.100;2023-01-01T01:11:55;99677.11;;;9.82;65.70
61761;BME280;47664;51.660;-0.100;2023-01-01T01:14:27;99689.65;;;9.92;65.46
61761;BME280;47664;51.660;-0.100;2023-01-01T01:16:59;99692.27;;;9.48;65.60
61761;BME280;47664;51.660;-0.100;2023-01-01T01:19:31;99691.77;;;10.11;64.40
61761;BME280;47664;51.660;-0.100;2023-01-01T01:22:04;99698.84;;;9.81;65.12
61761;BME280;47664;51.660;-0.100;2023-01-01T01:24:36;99702.78;;;9.63;65.09
61761;BME280;47664;51.660;-0.100;2023-01-01T01:27:09;99700.73;;;9.52;64.93
61761;BME280;47664;51.660;-0.100;2023-01-01T01:29:41;99709.92;;;9.93;65.18
61761;BME280;47664;51.660;-0.100;2023-01-01T01:32:14;99717.28;;;9.72;65.25
61761;BME280;47664;51.660;-0.100;2023-01-01T01:34:46;99720.51;;;9.65;65.04
61761;BME280;47664;51.660;-0.100;2023-01-01T01:37:18;99728.64;;;9.53;64.47
61761;BME280;47664;51.660;-0.100;2023-01-01T01:39:50;99736.76;;;8.99;64.39
61761;BME280;47664;51.660;-0.100;2023-01-01T01:42:23;99735.70;;;9.55;63.67
61761;BME280;47664;51.660;-0.100;2023-01-01T01:44:57;99737.65;;;9.32;63.09
61761;BME280;47664;51.660;-0.100;2023-01-01T01:47:29;99751.66;;;9.33;64.41
61761;BME280;47664;51.660;-0.100;2023-01-01T01:50:06;99759.83;;;9.08;64.11
61761;BME280;47664;51.660;-0.100;2023-01-01T01:52:43;99762.87;;;9.65;64.70
61761;BME280;47664;51.660;-0.100;2023-01-01T01:55:18;99771.52;;;9.39;63.83
61761;BME280;47664;51.660;-0.100;2023-01-01T01:57:51;99771.95;;;8.77;63.90
61761;BME280;47664;51.660;-0.100;2023-01-01T02:00:24;99782.03;;;9.45;63.83
61761;BME280;47664;51.660;-0.100;2023-01-01T02:02:59;99782.88;;;9.09;63.23
61761;BME280;47664;51.660;-0.100;2023-01-01T02:05:33;99787.19;;;9.23;63.37
61761;BME280;47664;51.660;-0.100;2023-01-01T02:08:07;99794.52;;;9.18;62.42
61761;BME280;47664;51.660;-0.100;2023-01-01T02:10:39;99786.26;;;9.29;62.51
61761;BME280;47664;51.660;-0.100;2023-01-01T02:13:12;99799.61;;;9.35;63.23
61761;BME280;47664;51.660;-0.100;2023-01-01T02:15:46;99800.95;;;9.85;61.74
61761;BME280;47664;51.660;-0.100;2023-01-01T02:18:17;99803.35;;;9.38;62.02
61761;BME280;47664;51.660;-0.100;2023-01-01T02:20:49;99798.91;;;9.20;61.95
61761;BME280;47664;51.660;-0.100;2023-01-01T02:23:27;99808.89;;;9.64;62.22
61761;BME280;47664;51.660;-0.100;2023-01-01T02:26:13;99812.34;;;9.13;63.75
61761;BME280;47664;51.660;-0.100;2023-01-01T02:28:51;99819.92;;;9.02;63.57
61761;BME280;47664;51.660;-0.100;2023-01-01T02:31:31;99819.42;;;9.50;62.37
61761;BME280;47664;51.660;-0.100;2023-01-01T02:34:09;99822.72;;;9.57;62.03
61761;BME280;47664;51.660;-0.100;2023-01-01T02:36:42;99830.44;;;9.49;61.24
61761;BME280;47664;51.660;-0.100;2023-01-01T02:39:18;99841.20;;;9.11;61.81
61761;BME280;47664;51.660;-0.100;2023-01-01T02:41:53;99840.31;;;8.71;61.66
61761;BME280;47664;51.660;-0.100;2023-01-01T02:44:31;99841.96;;;9.04;62.29
61761;BME280;47664;51.660;-0.100;2023-01-01T02:47:12;99838.08;;;9.15;61.84
61761;BME280;47664;51.660;-0.100;2023-01-01T02:49:47;99840.06;;;9.06;62.03
61761;BME280;47664;51.660;-0.100;2023-01-01T02:52:32;99842.63;;;8.97;61.01
61761;BME280;47664;51.660;-0.100;2023-01-01T02:55:08;99846.16;;;8.66;61.68
61761;BME280;47664;51.660;-0.100;2023-01-01T02:57:44;99847.35;;;9.09;60.40
61761;BME280;47664;51.660;-0.100;2023-01-01T03:00:18;99857.51;;;8.66;61.51
61761;BME280;47664;51.660;-0.100;2023-01-01T03:03:00;99857.47;;;8.65;61.07
61761;BME280;47664;51.660;-0.100;2023-01-01T03:05:39;99860.50;;;9.32;60.96
61761;BME280;47664;51.660;-0.100;2023-01-01T03:08:17;99867.28;;;9.26;61.25
61761;BME280;47664;51.660;-0.100;2023-01-01T03:10:57;99871.79;;;8.32;61.41
61761;BME280;47664;51.660;-0.100;2023-01-01T03:13:34;99870.19;;;9.01;61.65
61761;BME280;47664;51.660;-0.100;2023-01-01T03:16:08;99875.81;;;8.84;61.86
61761;BME280;47664;51.660;-0.100;2023-01-01T03:18:43;99867.08;;;8.80;61.66
61761;BME280;47664;51.660;-0.100;2023-01-01T03:21:21;99878.59;;;8.77;61.70
61761;BME280;47664;51.660;-0.100;2023-01-01T03:23:50;99870.61;;;8.64;61.34
61761;BME280;47664;51.660;-0.100;2023-01-01T03:26:24;99870.52;;;8.72;62.18
61761;BME280;47664;51.660;-0.100;2023-01-01T03:28:59;99872.24;;;8.92;61.36
61761;BME280;47664;51.660;-0.100;2023-01-01T03:31:33;99882.61;;;9.16;60.78
61761;BME280;47664;51.660;-0.100;2023-01-01T03:34:09;99886.30;;;9.28;60.60
61761;BME280;47664;51.660;-0.100;2023-01-01T03:36:44;99889.80;;;9.34;61.54
61761;BME280;47664;51.660;-0.100;2023-01-01T03:39:17;99888.74;;;9.05;61.86
61761;BME280;47664;51.660;-0.100;2023-01-01T03:41:50;99888.01;;;9.04;60.79
61761;BME280;47664;51.660;-0.100;2023-01-01T03:44:23;99887.93;;;9.14;60.46
61761;BME280;47664;51.660;-0.100;2023-01-01T03:46:57;99885.00;;;9.42;59.47
61761;BME280;47664;51.660;-0.100;2023-01-01T03:49:30;99892.08;;;9.06;60.00
61761;BME280;47664;51.660;-0.100;2023-01-01T03:52:06;99895.68;;;9.35;59.81
61761;BME280;47664;51.660;-0.100;2023-01-01T03:54:43;99896.96;;;9.37;60.44
61761;BME280;47664;51.660;-0.100;2023-01-01T03:57:21;99894.04;;;9.13;61.35
61761;BME280;47664;51.660;-0.100;2023-01-01T03:59:56;99898.38;;;9.09;61.03
61761;BME280;47664;51.660;-0.100;2023-01-01T04:02:33;99905.92;;;9.03;61.27
61761;BME280;47664;51.660;-0.100;2023-01-01T04:05:09;99906.42;;;8.80;61.81
61761;BME280;47664;51.660;-0.100;2023-01-01T04:07:42;99911.34;;;9.13;61.62
61761;BME280;47664;51.660;-0.100;2023-01-01T04:10:14;99915.30;;;8.80;61.84
61761;BME280;47664;51.660;-0.100;2023-01-01T04:12:48;99929.41;;;9.11;61.64
61761;BME280;47664;51.660;-0.100;2023-01-01T04:15:23;99930.88;;;8.86;62.19
61761;BME280;47664;51.660;-0.100;2023-01-01T04:17:56;99934.02;;;8.48;61.69
61761;BME280;47664;51.660;-0.100;2023-01-01T04:20:28;99943.35;;;9.11;61.18
61761;BME280;47664;51.660;-0.100;2023-01-01T04:23:02;99937.65;;;9.43;60.54
61761;BME280;47664;51.660;-0.100;2023-01-01T04:25:34;99937.38;;;9.07;60.29
61761;BME280;47664;51.660;-0.100;2023-01-01T04:28:06;99947.13;;;9.03;61.01
61761;BME280;47664;51.660;-0.100;2023-01-01T04:30:38;99950.92;;;9.15;60.79
61761;BME280;47664;51.660;-0.100;2023-01-01T04:33:10;99951.33;;;8.70;60.85
61761;BME280;47664;51.660;-0.100;2023-01-01T04:35:43;99946.87;;;9.37;60.18
61761;BME280;47664;51.660;-0.100;2023-01-01T04:38:16;99946.79;;;9.08;60.40
61761;BME280;47664;51.660;-0.100;2023-01-01T04:40:57;99951.89;;;8.84;60.45
61761;BME280;47664;51.660;-0.100;2023-01-01T04:43:29;99954.45;;;8.81;61.10
61761;BME280;47664;51.660;-0.100;2023-01-01T04:46:02;99959.48;;;8.73;60.93
61761;BME280;47664;51.660;-0.100;2023-01-01T04:48:35;99964.57;;;9.31;60.23
61761;BME280;47664;51.660;-0.100;2023-01-01T04:51:09;99960.35;;;8.86;60.90
61761;BME280;47664;51.660;-0.100;2023-01-01T04:53:42;99968.96;;;8.97;61.18
61761;BME280;47664;51.660;-0.100;2023-01-01T04:56:17;99972.73;;;9.10;60.78
61761;BME280;47664;51.660;-0.100;2023-01-01T04:58:51;99976.76;;;8.26;61.65
61761;BME280;47664;51.660;-0.100;2023-01-01T05:01:25;99983.11;;;8.95;61.20
61761;BME280;47664;51.660;-0.100;2023-01-01T05:03:59;99990.74;;;8.68;61.73
61761;BME280;47664;51.660;-0.100;2023-01-01T05:06:32;99992.23;;;9.07;60.83
61761;BME280;47664;51.660;-0.100;2023-01-01T05:09:04;99987.03;;;9.10;60.91
61761;BME280;47664;51.660;-0.100;2023-01-01T05:11:37;99987.55;;;8.67;61.42
61761;BME280;47664;51.660;-0.100;2023-01-01T05:14:09;99991.95;;;8.63;62.02
61761;BME280;47664;51.660;-0.100;2023-01-01T05:16:42;99992.94;;;9.15;60.95
61761;BME280;47664;51.660;-0.100;2023-01-01T05:19:14;99995.58;;;9.45;59.69
61761;BME280;47664;51.660;-0.100;2023-01-01T05:21:46;99998.80;;;9.38;60.41
61761;BME280;47664;51.660;-0.100;2023-01-01T05:24:18;100003.47;;;9.32;59.73
61761;BME280;47664;51.660;-0.100;2023-01-01T05:26:50;100006.39;;;8.91;60.22
61761;BME280;47664;51.660;-0.100;2023-01-01T05:29:23;100011.25;;;9.23;61.17
61761;BME280;47664;51.660;-0.100;2023-01-01T05:31:54;100018.75;;;8.39;61.49
61761;BME280;47664;51.660;-0.100;2023-01-01T05:34:27;100021.97;;;8.81;61.90
61761;BME280;47664;51.660;-0.100;2023-01-01T05:36:59;100012.31;;;8.99;61.18
61761;BME280;47664;51.660;-0.100;2023-01-01T05:39:31;100013.46;;;8.68;61.77
61761;BME280;47664;51.660;-0.100;2023-01-01T05:42:03;100012.28;;;8.93;62.32
61761;BME280;47664;51.660;-0.100;2023-01-01T05:44:35;100009.71;;;8.93;61.77
61761;BME280;47664;51.660;-0.100;2023-01-01T05:47:07;100013.74;;;9.17;60.93
61761;BME280;47664;51.660;-0.100;2023-01-01T05:49:39;100018.86;;;9.37;60.67
61761;BME280;47664;51.660;-0.100;2023-01-01T05:52:11;100015.89;;;9.36;61.02
61761;BME280;47664;51.660;-0.100;2023-01-01T05:54:43;100014.21;;;9.35;62.68
61761;BME280;47664;51.660;-0.100;2023-01-01T05:57:15;100015.35;;;9.41;61.11
61761;BME280;47664;51.660;-0.100;2023-01-01T05:59:47;100022.48;;;9.23;62.37
61761;BME280;47664;51.660;-0.100;2023-01-01T06:02:19;100035.18;;;8.85;62.55
61761;BME280;47664;51.660;-0.100;2023-01-01T06:04:51;100031.23;;;8.77;62.38
61761;BME280;47664;51.660;-0.100;2023-01-01T06:07:24;100042.66;;;8.85;63.08
61761;BME280;47664;51.660;-0.100;2023-01-01T06:09:56;100045.79;;;8.96;61.90
61761;BME280;47664;51.660;-0.100;2023-01-01T06:12:28;100050.49;;;9.08;62.47
61761;BME280;47664;51.660;-0.100;2023-01-01T06:15:00;100063.34;;;8.83;62.50
61761;BME280;47664;51.660;-0.100;2023-01-01T06:17:33;100062.41;;;9.33;62.10
61761;BME280;47664;51.660;-0.100;2023-01-01T06:20:05;100067.30;;;9.08;61.77
61761;BME280;47664;51.660;-0.100;2023-01-01T06:22:40;100074.75;;;8.84;62.75
61761;BME280;47664;51.660;-0.100;2023-01-01T06:25:13;100067.88;;;8.91;62.73
61761;BME280;47664;51.660;-0.100;2023-01-01T06:27:45;100078.94;;;9.01;62.43
61761;BME280;47664;51.660;-0.100;2023-01-01T06:30:17;100080.91;;;9.02;63.25
61761;BME280;47664;51.660;-0.100;2023-01-01T06:32:49;100085.15;;;8.61;62.80
61761;BME280;47664;51.660;-0.100;2023-01-01T06:35:21;100083.05;;;8.77;63.06
61761;BME280;47664;51.660;-0.100;2023-01-01T06:37:53;100086.10;;;8.48;63.21
61761;BME280;47664;51.660;-0.100;2023-01-01T06:40:25;100093.83;;;9.08;62.68
61761;BME280;47664;51.660;-0.100;2023-01-01T06:42:57;100086.65;;;8.73;62.01
61761;BME280;47664;51.660;-0.100;2023-01-01T06:45:29;100087.23;;;9.44;61.27
61761;BME280;47664;51.660;-0.100;2023-01-01T06:48:01;100085.80;;;9.02;61.37
61761;BME280;47664;51.660;-0.100;2023-01-01T06:50:33;100099.59;;;9.05;61.46
61761;BME280;47664;51.660;-0.100;2023-01-01T06:53:06;100109.76;;;9.27;61.73
61761;BME280;47664;51.660;-0.100;2023-01-01T06:55:38;100112.25;;;9.18;61.28
61761;BME280;47664;51.660;-0.100;2023-01-01T06:58:11;100115.37;;;9.20;61.85
61761;BME280;47664;51.660;-0.100;2023-01-01T07:00:43;100129.14;;;9.06;61.71
61761;BME280;47664;51.660;-0.100;2023-01-01T07:03:15;100137.87;;;8.85;62.22
61761;BME280;47664;51.660;-0.100;2023-01-01T07:05:48;100139.52;;;9.08;61.91
61761;BME280;47664;51.660;-0.100;2023-01-01T07:08:20;100138.51;;;8.91;62.68
61761;BME280;47664;51.660;-0.100;2023-01-01T07:10:53;100140.28;;;8.64;62.47
61761;BME280;47664;51.660;-0.100;2023-01-01T07:13:26;100160.09;;;8.78;63.10
61761;BME280;47664;51.660;-0.100;2023-01-01T07:15:59;100159.30;;;8.67;64.52
61761;BME280;47664;51.660;-0.100;2023-01-01T07:18:31;100166.08;;;8.79;64.07
61761;BME280;47664;51.660;-0.100;2023-01-01T07:21:05;100175.27;;;8.80;63.89
61761;BME280;47664;51.660;-0.100;2023-01-01T07:23:39;100170.55;;;8.79;64.01
61761;BME280;47664;51.660;-0.100;2023-01-01T07:26:12;100168.17;;;8.93;63.20
61761;BME280;47664;51.660;-0.100;2023-01-01T07:28:45;100157.92;;;8.92;63.36
61761;BME280;47664;51.660;-0.100;2023-01-01T07:31:22;100163.09;;;9.06;62.96
61761;BME280;47664;51.660;-0.100;2023-01-01T07:33:54;100154.03;;;8.32;63.82
61761;BME280;47664;51.660;-0.100;2023-01-01T07:36:26;100156.75;;;8.95;63.34
61761;BME280;47664;51.660;-0.100;2023-01-01T07:38:59;100161.51;;;8.57;63.01
61761;BME280;47664;51.660;-0.100;2023-01-01T07:41:31;100170.10;;;9.13;62.71
61761;BME280;47664;51.660;-0.100;2023-01-01T07:44:03;100180.73;;;9.14;62.64
61761;BME280;47664;51.660;-0.100;2023-01-01T07:46:35;100179.25;;;8.79;63.37
61761;BME280;47664;51.660;-0.100;2023-01-01T07:49:07;100174.01;;;9.18;61.70
61761;BME280;47664;51.660;-0.100;2023-01-01T07:51:39;100177.70;;;9.09;62.71
61761;BME280;47664;51.660;-0.100;2023-01-01T07:54:12;100187.00;;;9.58;61.84
61761;BME280;47664;51.660;-0.100;2023-01-01T07:56:44;100183.52;;;9.34;61.35
61761;BME280;47664;51.660;-0.100;2023-01-01T07:59:16;100186.51;;;9.42;61.79
61761;BME280;47664;51.660;-0.100;2023-01-01T08:01:48;100186.87;;;9.70;61.19
61761;BME280;47664;51.660;-0.100;2023-01-01T08:04:21;100193.16;;;9.27;61.84
61761;BME280;47664;51.660;-0.100;2023-01-01T08:06:53;100201.86;;;8.82;61.88
61761;BME280;47664;51.660;-0.100;2023-01-01T08:09:25;100204.46;;;9.39;62.15
61761;BME280;47664;51.660;-0.100;2023-01-01T08:11:57;100197.90;;;8.91;61.58
61761;BME280;47664;51.660;-0.100;2023-01-01T08:14:29;100199.01;;;8.96;61.96
61761;BME280;47664;51.660;-0.100;2023-01-01T08:17:02;100204.23;;;9.19;61.61
61761;BME280;47664;51.660;-0.100;2023-01-01T08:19:34;100203.01;;;9.11;61.46
61761;BME280;47664;51.660;-0.100;2023-01-01T08:22:06;100210.47;;;8.93;62.66
61761;BME280;47664;51.660;-0.100;2023-01-01T08:24:37;100213.78;;;8.64;62.79
61761;BME280;47664;51.660;-0.100;2023-01-01T08:27:10;100213.29;;;9.28;62.01
61761;BME280;47664;51.660;-0.100;2023-01-01T08:29:44;100219.23;;;9.88;60.83
61761;BME280;47664;51.660;-0.100;2023-01-01T08:32:17;100226.12;;;9.41;61.71
61761;BME280;47664;51.660;-0.100;2023-01-01T08:34:49;100237.37;;;9.14;61.77
61761;BME280;47664;51.660;-0.100;2023-01-01T08:37:22;100246.50;;;9.09;62.02
61761;BME280;47664;51.660;-0.100;2023-01-01T08:39:55;100264.09;;;8.84;63.82
61761;BME280;47664;51.660;-0.100;2023-01-01T08:42:26;100262.23;;;8.95;64.46
61761;BME280;47664;51.660;-0.100;2023-01-01T08:44:58;100245.10;;;8.92;63.53
61761;BME280;47664;51.660;-0.100;2023-01-01T08:47:31;100247.31;;;9.22;61.66
61761;BME280;47664;51.660;-0.100;2023-01-01T08:50:03;100249.00;;;8.99;61.62
61761;BME280;47664;51.660;-0.100;2023-01-01T08:52:36;100239.15;;;9.23;60.37
61761;BME280;47664;51.660;-0.100;2023-01-01T08:55:09;100253.62;;;8.77;62.90
61761;BME280;47664;51.660;-0.100;2023-01-01T08:57:42;100259.81;;;8.64;64.53
61761;BME280;47664;51.660;-0.100;2023-01-01T09:00:15;100267.05;;;7.71;71.48
61761;BME280;47664;51.660;-0.100;2023-01-01T09:02:48;100255.72;;;7.79;72.24
61761;BME280;47664;51.660;-0.100;2023-01-01T09:05:20;100257.96;;;8.52;70.20
61761;BME280;47664;51.660;-0.100;2023-01-01T09:07:53;100250.53;;;7.79;68.76
61761;BME280;47664;51.660;-0.100;2023-01-01T09:10:24;100247.16;;;8.66;69.16
61761;BME280;47664;51.660;-0.100;2023-01-01T09:12:56;100246.04;;;8.06;68.17
61761;BME280;47664;51.660;-0.100;2023-01-01T09:15:29;100249.37;;;8.08;68.47
61761;BME280;47664;51.660;-0.100;2023-01-01T09:18:01;100247.45;;;8.43;68.18
61761;BME280;47664;51.660;-0.100;2023-01-01T09:20:33;100247.12;;;8.95;67.06
61761;BME280;47664;51.660;-0.100;2023-01-01T09:23:05;100244.09;;;8.72;66.80
61761;BME280;47664;51.660;-0.100;2023-01-01T09:25:39;100244.06;;;9.03;66.39
61761;BME280;47664;51.660;-0.100;2023-01-01T09:28:12;100248.49;;;8.87;66.31
61761;BME280;47664;51.660;-0.100;2023-01-01T09:30:44;100258.45;;;8.75;67.52
61761;BME280;47664;51.660;-0.100;2023-01-01T09:33:16;100265.41;;;8.59;67.52
61761;BME280;47664;51.660;-0.100;2023-01-01T09:35:49;100269.62;;;8.73;67.40
61761;BME280;47664;51.660;-0.100;2023-01-01T09:38:21;100283.84;;;8.94;65.93
61761;BME280;47664;51.660;-0.100;2023-01-01T09:40:56;100290.96;;;8.87;65.74
61761;BME280;47664;51.660;-0.100;2023-01-01T09:43:34;100293.25;;;9.28;66.09
61761;BME280;47664;51.660;-0.100;2023-01-01T09:46:12;100307.68;;;9.24;66.15
61761;BME280;47664;51.660;-0.100;2023-01-01T09:48:47;100316.96;;;9.26;65.85
61761;BME280;47664;51.660;-0.100;2023-01-01T09:51:24;100331.82;;;9.02;67.77
61761;BME280;47664;51.660;-0.100;2023-01-01T09:53:58;100332.36;;;8.82;68.23
61761;BME280;47664;51.660;-0.100;2023-01-01T09:56:34;100334.98;;;8.33;70.14
61761;BME280;47664;51.660;-0.100;2023-01-01T09:59:07;100333.97;;;8.29;70.66
61761;BME280;47664;51.660;-0.100;2023-01-01T10:01:41;100345.04;;;7.87;71.03
61761;BME280;47664;51.660;-0.100;2023-01-01T10:05:29;100346.67;;;7.70;71.91
61761;BME280;47664;51.660;-0.100;2023-01-01T10:08:07;100348.70;;;7.74;72.34
61761;BME280;47664;51.660;-0.100;2023-01-01T10:10:45;100352.12;;;7.65;73.42
61761;BME280;47664;51.660;-0.100;2023-01-01T10:13:22;100346.63;;;7.99;72.83
61761;BME280;47664;51.660;-0.100;2023-01-01T10:15:56;100357.73;;;8.05;72.58
61761;BME280;47664;51.660;-0.100;2023-01-01T10:18:28;100357.00;;;8.13;73.02
61761;BME280;47664;51.660;-0.100;2023-01-01T10:21:06;100348.34;;;8.49;70.92
61761;BME280;47664;51.660;-0.100;2023-01-01T10:23:39;100343.17;;;8.58;68.73
61761;BME280;47664;51.660;-0.100;2023-01-01T10:26:13;100345.02;;;8.29;69.39
61761;BME280;47664;51.660;-0.100;2023-01-01T10:28:48;100344.68;;;8.52;69.34
61761;BME280;47664;51.660;-0.100;2023-01-01T10:31:27;100332.54;;;8.58;69.23
61761;BME280;47664;51.660;-0.100;2023-01-01T10:34:02;100332.71;;;8.73;68.44
61761;BME280;47664;51.660;-0.100;2023-01-01T10:36:37;100332.91;;;8.95;68.63
61761;BME280;47664;51.660;-0.100;2023-01-01T10:39:11;100327.82;;;8.75;67.32
61761;BME280;47664;51.660;-0.100;2023-01-01T10:41:45;100331.66;;;9.40;67.47
61761;BME280;47664;51.660;-0.100;2023-01-01T10:44:22;100327.13;;;9.04;67.64
61761;BME280;47664;51.660;-0.100;2023-01-01T10:47:00;100332.00;;;9.03;67.43
61761;BME280;47664;51.660;-0.100;2023-01-01T10:49:39;100328.10;;;9.22;66.62
61761;BME280;47664;51.660;-0.100;2023-01-01T10:52:28;100329.17;;;9.16;66.83
61761;BME280;47664;51.660;-0.100;2023-01-01T10:55:02;100319.17;;;9.21;66.66
61761;BME280;47664;51.660;-0.100;2023-01-01T10:57:36;100323.91;;;9.56;65.60
61761;BME280;47664;51.660;-0.100;2023-01-01T11:00:20;100323.18;;;9.34;65.30
61761;BME280;47664;51.660;-0.100;2023-01-01T11:03:08;100324.50;;;9.00;65.62
61761;BME280;47664;51.660;-0.100;2023-01-01T11:05:54;100326.17;;;9.32;66.75
61761;BME280;47664;51.660;-0.100;2023-01-01T11:08:31;100325.98;;;10.00;65.91
61761;BME280;47664;51.660;-0.100;2023-01-01T11:11:05;100324.63;;;9.29;66.50
61761;BME280;47664;51.660;-0.100;2023-01-01T11:13:38;100321.81;;;9.92;65.76
61761;BME280;47664;51.660;-0.100;2023-01-01T11:16:09;100324.90;;;9.33;66.11
61761;BME280;47664;51.660;-0.100;2023-01-01T11:18:42;100317.03;;;9.08;67.04
61761;BME280;47664;51.660;-0.100;2023-01-01T11:21:18;100320.22;;;9.24;66.21
61761;BME280;47664;51.660;-0.100;2023-01-01T11:24:06;100311.64;;;9.02;66.24
61761;BME280;47664;51.660;-0.100;2023-01-01T11:26:40;100305.87;;;9.79;66.16
61761;BME280;47664;51.660;-0.100;2023-01-01T11:29:19;100306.02;;;9.63;66.52
61761;BME280;47664;51.660;-0.100;2023-01-01T11:31:52;100301.99;;;9.23;65.78
61761;BME280;47664;51.660;-0.100;2023-01-01T11:34:30;100292.52;;;9.64;66.41
61761;BME280;47664;51.660;-0.100;2023-01-01T11:37:10;100289.54;;;9.65;66.03
61761;BME280;47664;51.660;-0.100;2023-01-01T11:39:48;100284.25;;;10.12;64.04
61761;BME280;47664;51.660;-0.100;2023-01-01T11:42:23;100290.73;;;10.08;63.52
61761;BME280;47664;51.660;-0.100;2023-01-01T11:44:59;100294.23;;;9.99;63.58
61761;BME280;47664;51.660;-0.100;2023-01-01T11:47:34;100293.52;;;10.02;63.61
61761;BME280;47664;51.660;-0.100;2023-01-01T11:50:13;100298.58;;;9.77;63.67
61761;BME280;47664;51.660;-0.100;2023-01-01T11:52:50;100299.63;;;9.41;64.49
61761;BME280;47664;51.660;-0.100;2023-01-01T11:55:23;100291.22;;;9.70;65.25
61761;BME280;47664;51.660;-0.100;2023-01-01T11:57:58;100287.31;;;9.25;64.94
61761;BME280;47664;51.660;-0.100;2023-01-01T12:00:33;100284.61;;;9.29;64.86
61761;BME280;47664;51.660;-0.100;2023-01-01T12:03:10;100284.27;;;9.36;65.18
61761;BME280;47664;51.660;-0.100;2023-01-01T12:05:46;100284.36;;;9.43;64.52
61761;BME280;47664;51.660;-0.100;2023-01-01T12:08:22;100283.55;;;9.70;64.43
61761;BME280;47664;51.660;-0.100;2023-01-01T12:10:57;100285.01;;;9.58;63.93
61761;BME280;47664;51.660;-0.100;2023-01-01T12:13:35;100300.17;;;9.78;63.77
61761;BME280;47664;51.660;-0.100;2023-01-01T12:16:08;100293.69;;;9.73;62.88
61761;BME280;47664;51.660;-0.100;2023-01-01T12:18:43;100301.91;;;10.10;63.13
61761;BME280;47664;51.660;-0.100;2023-01-01T12:21:16;100307.34;;;10.06;62.91
61761;BME280;47664;51.660;-0.100;2023-01-01T12:23:51;100303.60;;;9.78;62.79
61761;BME280;47664;51.660;-0.100;2023-01-01T12:26:22;100300.73;;;10.06;62.42
61761;BME280;47664;51.660;-0.100;2023-01-01T12:30:26;100299.73;;;10.29;62.06
61761;BME280;47664;51.660;-0.100;2023-01-01T12:33:12;100300.72;;;10.40;61.01
61761;BME280;47664;51.660;-0.100;2023-01-01T12:35:57;100295.63;;;9.72;62.00
61761;BME280;47664;51.660;-0.100;2023-01-01T12:38:43;100291.63;;;10.16;62.28
61761;BME280;47664;51.660;-0.100;2023-01-01T12:41:18;100296.10;;;10.16;62.23
61761;BME280;47664;51.660;-0.100;2023-01-01T12:44:00;100288.61;;;9.84;62.51
61761;BME280;47664;51.660;-0.100;2023-01-01T12:46:43;100277.79;;;9.92;62.30
61761;BME280;47664;51.660;-0.100;2023-01-01T12:49:24;100275.21;;;10.20;62.26
61761;BME280;47664;51.660;-0.100;2023-01-01T12:52:02;100268.00;;;10.03;62.10
61761;BME280;47664;51.660;-0.100;2023-01-01T12:54:50;100269.95;;;10.14;62.28
61761;BME280;47664;51.660;-0.100;2023-01-01T12:57:25;100282.44;;;10.59;61.06
61761;BME280;47664;51.660;-0.100;2023-01-01T12:59:57;100281.08;;;9.96;61.45
61761;BME280;47664;51.660;-0.100;2023-01-01T13:02:33;100284.53;;;10.15;62.01
61761;BME280;47664;51.660;-0.100;2023-01-01T13:05:07;100278.95;;;9.97;62.03
61761;BME280;47664;51.660;-0.100;2023-01-01T13:07:42;100280.16;;;10.13;62.17
61761;BME280;47664;51.660;-0.100;2023-01-01T13:10:22;100280.59;;;10.15;62.05
61761;BME280;47664;51.660;-0.100;2023-01-01T13:12:56;100286.61;;;9.98;62.01
61761;BME280;47664;51.660;-0.100;2023-01-01T13:15:48;100281.36;;;10.33;61.55
61761;BME280;47664;51.660;-0.100;2023-01-01T13:18:26;100280.37;;;9.98;62.01
61761;BME280;47664;51.660;-0.100;2023-01-01T13:21:03;100282.26;;;9.59;63.17
61761;BME280;47664;51.660;-0.100;2023-01-01T13:23:48;100277.86;;;10.08;62.11
61761;BME280;47664;51.660;-0.100;2023-01-01T13:26:49;100280.45;;;10.39;62.03
61761;BME280;47664;51.660;-0.100;2023-01-01T13:29:34;100276.88;;;10.13;61.83
61761;BME280;47664;51.660;-0.100;2023-01-01T13:32:14;100266.54;;;10.29;61.17